createdAt,value
2017-12-16T00:00:31.471Z,996.76
2017-12-16T00:01:31.339Z,996.79
2017-12-16T00:02:36.063Z,996.72
2017-12-16T00:03:31.317Z,996.82
2017-12-16T00:04:32.387Z,996.80
2017-12-16T00:05:31.330Z,996.75
2017-12-16T00:06:31.386Z,996.80
2017-12-16T00:07:31.361Z,996.77
2017-12-16T00:08:31.379Z,996.76
2017-12-16T00:09:31.327Z,996.86
2017-12-16T00:10:31.338Z,996.78
2017-12-16T00:11:32.428Z,996.82
2017-12-16T00:12:31.344Z,996.80
2017-12-16T00:13:31.374Z,996.81
2017-12-16T00:14:31.344Z,996.84
2017-12-16T00:15:32.439Z,996.83
2017-12-16T00:16:31.357Z,996.89
2017-12-16T00:17:31.442Z,996.97
2017-12-16T00:18:31.350Z,996.93
2017-12-16T00:19:35.957Z,996.94
2017-12-16T00:20:31.369Z,996.96
2017-12-16T00:21:31.477Z,996.98
2017-12-16T00:22:31.380Z,996.95
2017-12-16T00:23:37.013Z,997.01
2017-12-16T00:24:31.368Z,997.05
2017-12-16T00:25:31.415Z,997.05
2017-12-16T00:26:31.375Z,997.02
2017-12-16T00:27:31.412Z,997.08
2017-12-16T00:28:31.365Z,997.10
2017-12-16T00:29:31.427Z,997.15
2017-12-16T00:30:31.370Z,997.13
2017-12-16T00:31:33.476Z,997.15
2017-12-16T00:32:31.390Z,997.13
2017-12-16T00:33:36.983Z,997.16
2017-12-16T00:34:31.387Z,997.17
2017-12-16T00:35:33.516Z,997.16
2017-12-16T00:36:31.379Z,997.15
2017-12-16T00:37:31.472Z,997.16
2017-12-16T00:38:31.384Z,997.18
2017-12-16T00:39:31.495Z,997.21
2017-12-16T00:40:31.388Z,997.24
2017-12-16T00:41:37.032Z,997.20
2017-12-16T00:42:31.403Z,997.19
2017-12-16T00:43:31.511Z,997.21
2017-12-16T00:44:31.402Z,997.21
2017-12-16T00:45:31.426Z,997.21
2017-12-16T00:46:31.398Z,997.21
2017-12-16T00:47:31.443Z,997.17
2017-12-16T00:48:31.430Z,997.18
2017-12-16T00:49:31.459Z,997.20
2017-12-16T00:50:31.421Z,997.21
2017-12-16T00:51:31.460Z,997.21
2017-12-16T00:52:31.420Z,997.22
2017-12-16T00:53:35.982Z,997.21
2017-12-16T00:54:31.421Z,997.19
2017-12-16T00:55:31.485Z,997.26
2017-12-16T00:56:31.423Z,997.26
2017-12-16T00:57:31.519Z,997.26
2017-12-16T00:58:31.442Z,997.27
2017-12-16T00:59:31.518Z,997.26
2017-12-16T01:00:31.436Z,997.25
2017-12-16T01:01:32.552Z,997.32
2017-12-16T01:02:31.439Z,997.29
2017-12-16T01:03:32.464Z,997.30
2017-12-16T01:04:31.439Z,997.32
2017-12-16T01:05:33.503Z,997.33
2017-12-16T01:06:31.455Z,997.35
2017-12-16T01:07:31.566Z,997.32
2017-12-16T01:08:31.445Z,997.33
2017-12-16T01:09:38.549Z,997.36
2017-12-16T01:10:31.458Z,997.35
2017-12-16T01:11:31.486Z,997.37
2017-12-16T01:12:31.459Z,997.41
2017-12-16T01:13:32.531Z,997.42
2017-12-16T01:14:31.463Z,997.42
2017-12-16T01:15:32.560Z,997.43
2017-12-16T01:16:31.479Z,997.47
2017-12-16T01:17:32.556Z,997.57
2017-12-16T01:18:31.488Z,997.56
2017-12-16T01:19:32.604Z,997.52
2017-12-16T01:20:31.498Z,997.55
2017-12-16T01:21:31.556Z,997.54
2017-12-16T01:22:31.472Z,997.55
2017-12-16T01:23:31.471Z,997.54
2017-12-16T01:24:37.516Z,997.58
2017-12-16T01:25:31.483Z,997.60
2017-12-16T01:26:32.512Z,997.59
2017-12-16T01:27:31.501Z,997.62
2017-12-16T01:28:31.503Z,997.62
2017-12-16T01:29:31.486Z,997.62
2017-12-16T01:30:31.511Z,997.69
2017-12-16T01:31:31.506Z,997.70
2017-12-16T01:32:31.528Z,997.70
2017-12-16T01:33:31.495Z,997.72
2017-12-16T01:34:31.541Z,997.70
2017-12-16T01:35:31.508Z,997.69
2017-12-16T01:36:31.510Z,997.71
2017-12-16T01:37:31.516Z,997.74
2017-12-16T01:38:31.506Z,997.70
2017-12-16T01:39:31.516Z,997.74
2017-12-16T01:40:31.585Z,997.76
2017-12-16T01:41:31.508Z,997.81
2017-12-16T01:42:31.597Z,997.75
2017-12-16T01:43:31.530Z,997.80
2017-12-16T01:44:31.609Z,997.78
2017-12-16T01:45:31.518Z,997.77
2017-12-16T01:46:32.543Z,997.84
2017-12-16T01:47:31.533Z,997.79
2017-12-16T01:48:33.588Z,997.84
2017-12-16T01:49:31.538Z,997.88
2017-12-16T01:50:31.544Z,997.87
2017-12-16T01:51:31.550Z,997.88
2017-12-16T01:52:31.581Z,997.90
2017-12-16T01:53:31.539Z,997.90
2017-12-16T01:54:32.593Z,997.90
2017-12-16T01:55:31.575Z,997.91
2017-12-16T01:56:31.552Z,997.93
2017-12-16T01:57:31.596Z,998.01
2017-12-16T01:58:31.565Z,998.00
2017-12-16T01:59:31.639Z,997.98
2017-12-16T02:00:31.561Z,997.96
2017-12-16T02:01:36.541Z,997.96
2017-12-16T02:02:31.557Z,997.99
2017-12-16T02:03:31.644Z,997.94
2017-12-16T02:04:31.556Z,997.98
2017-12-16T02:05:31.655Z,997.96
2017-12-16T02:06:31.562Z,998.00
2017-12-16T02:07:31.670Z,998.05
2017-12-16T02:08:31.561Z,998.05
2017-12-16T02:09:31.677Z,998.07
2017-12-16T02:10:31.572Z,998.07
2017-12-16T02:11:36.528Z,998.05
2017-12-16T02:12:31.583Z,998.04
2017-12-16T02:13:31.609Z,998.04
2017-12-16T02:14:31.575Z,998.06
2017-12-16T02:15:31.624Z,998.04
2017-12-16T02:16:31.607Z,998.01
2017-12-16T02:17:31.595Z,998.05
2017-12-16T02:18:31.605Z,998.09
2017-12-16T02:19:31.594Z,998.13
2017-12-16T02:20:31.656Z,998.11
2017-12-16T02:21:31.596Z,998.13
2017-12-16T02:22:31.614Z,998.18
2017-12-16T02:23:31.680Z,998.18
2017-12-16T02:24:31.594Z,998.22
2017-12-16T02:25:32.703Z,998.21
2017-12-16T02:26:31.610Z,998.19
2017-12-16T02:27:43.486Z,998.21
2017-12-16T02:28:31.606Z,998.19
2017-12-16T02:29:31.717Z,998.17
2017-12-16T02:30:31.606Z,998.23
2017-12-16T02:31:31.734Z,998.22
2017-12-16T02:32:31.618Z,998.24
2017-12-16T02:33:31.643Z,998.22
2017-12-16T02:34:31.623Z,998.20
2017-12-16T02:35:32.691Z,998.21
2017-12-16T02:36:31.641Z,998.19
2017-12-16T02:37:32.688Z,998.22
2017-12-16T02:38:31.670Z,998.26
2017-12-16T02:39:31.719Z,998.23
2017-12-16T02:40:31.619Z,998.28
2017-12-16T02:41:36.514Z,998.28
2017-12-16T02:42:31.653Z,998.24
2017-12-16T02:43:31.709Z,998.27
2017-12-16T02:44:31.664Z,998.27
2017-12-16T02:45:32.755Z,998.33
2017-12-16T02:46:31.652Z,998.33
2017-12-16T02:47:31.741Z,998.31
2017-12-16T02:48:31.639Z,998.38
2017-12-16T02:49:36.470Z,998.40
2017-12-16T02:50:31.646Z,998.37
2017-12-16T02:51:32.701Z,998.34
2017-12-16T02:52:31.647Z,998.39
2017-12-16T02:53:31.678Z,998.34
2017-12-16T02:54:31.656Z,998.38
2017-12-16T02:55:36.508Z,998.37
2017-12-16T02:56:31.665Z,998.35
2017-12-16T02:57:37.561Z,998.33
2017-12-16T02:58:31.710Z,998.32
2017-12-16T02:59:36.575Z,998.37
2017-12-16T03:00:31.712Z,998.36
2017-12-16T03:01:31.743Z,998.31
2017-12-16T03:02:31.694Z,998.33
2017-12-16T03:03:44.541Z,998.35
2017-12-16T03:04:31.690Z,998.40
2017-12-16T03:05:31.771Z,998.38
2017-12-16T03:06:31.684Z,998.39
2017-12-16T03:07:31.774Z,998.44
2017-12-16T03:08:31.693Z,998.45
2017-12-16T03:09:31.841Z,998.43
2017-12-16T03:10:31.697Z,998.46
2017-12-16T03:11:36.526Z,998.47
2017-12-16T03:12:31.716Z,998.46
2017-12-16T03:13:34.443Z,998.47
2017-12-16T03:14:38.654Z,998.43
2017-12-16T03:15:31.724Z,998.50
2017-12-16T03:16:43.578Z,998.49
2017-12-16T03:17:31.694Z,998.54
2017-12-16T03:18:36.628Z,998.56
2017-12-16T03:19:31.722Z,998.62
2017-12-16T03:20:37.573Z,998.58
2017-12-16T03:21:31.715Z,998.57
2017-12-16T03:22:42.595Z,998.58
2017-12-16T03:23:31.746Z,998.63
2017-12-16T03:24:38.626Z,998.63
2017-12-16T03:25:31.715Z,998.68
2017-12-16T03:26:38.647Z,998.70
2017-12-16T03:27:31.714Z,998.75
2017-12-16T03:28:33.837Z,998.72
2017-12-16T03:29:31.724Z,998.73
2017-12-16T06:18:33.158Z,1000.00
2017-12-16T06:19:24.180Z,999.97
2017-12-16T06:20:24.177Z,1000.00
2017-12-16T06:21:24.140Z,1000.00
2017-12-16T06:22:30.092Z,1000.02
2017-12-16T06:23:24.129Z,1000.04
2017-12-16T06:24:25.232Z,1000.09
2017-12-16T06:25:24.119Z,1000.07
2017-12-16T06:26:24.221Z,1000.10
2017-12-16T06:27:24.148Z,1000.05
2017-12-16T06:28:29.167Z,1000.06
2017-12-16T06:29:24.114Z,1000.10
2017-12-16T06:30:31.191Z,1000.08
2017-12-16T06:31:24.148Z,1000.13
2017-12-16T06:32:24.236Z,1000.12
2017-12-16T06:33:24.159Z,1000.08
2017-12-16T06:34:24.256Z,1000.15
2017-12-16T06:35:24.183Z,1000.06
2017-12-16T06:36:24.230Z,1000.07
2017-12-16T06:37:24.147Z,1000.09
2017-12-16T06:38:31.125Z,1000.14
2017-12-16T06:39:24.169Z,1000.10
2017-12-16T06:40:41.194Z,1000.12
2017-12-16T06:41:24.165Z,1000.16
2017-12-16T06:42:24.214Z,1000.15
2017-12-16T06:43:24.172Z,1000.16
2017-12-16T06:44:36.086Z,1000.26
2017-12-16T06:45:24.166Z,1000.30
2017-12-16T06:46:24.221Z,1000.33
2017-12-16T06:47:24.156Z,1000.29
2017-12-16T06:48:26.078Z,1000.29
2017-12-16T06:49:49.216Z,1000.36
2017-12-16T06:50:24.150Z,1000.37
2017-12-16T06:51:29.131Z,1000.38
2017-12-16T06:52:24.157Z,1000.40
2017-12-16T06:53:50.123Z,1000.39
2017-12-16T06:54:24.172Z,1000.41
2017-12-16T06:55:45.221Z,1000.42
2017-12-16T06:56:24.175Z,1000.41
2017-12-16T06:57:35.094Z,1000.42
2017-12-16T06:58:24.158Z,1000.46
2017-12-16T06:59:48.117Z,1000.50
2017-12-16T07:00:24.167Z,1000.45
2017-12-16T07:01:24.175Z,1000.46
2017-12-16T07:02:25.317Z,1000.45
2017-12-16T07:03:24.170Z,1000.49
2017-12-16T07:04:26.252Z,1000.50
2017-12-16T07:05:24.181Z,1000.54
2017-12-16T07:06:29.112Z,1000.53
2017-12-16T07:07:24.195Z,1000.60
2017-12-16T07:08:24.315Z,1000.57
2017-12-16T07:09:24.225Z,1000.60
2017-12-16T07:10:29.143Z,1000.62
2017-12-16T07:11:24.242Z,1000.60
2017-12-16T07:12:25.260Z,1000.60
2017-12-16T07:13:24.255Z,1000.67
2017-12-16T07:14:24.263Z,1000.69
2017-12-16T07:15:24.203Z,1000.69
2017-12-16T07:16:24.272Z,1000.74
2017-12-16T07:17:24.209Z,1000.79
2017-12-16T07:18:35.140Z,1000.77
2017-12-16T07:19:24.199Z,1000.78
2017-12-16T07:20:56.139Z,1000.84
2017-12-16T07:21:24.247Z,1000.87
2017-12-16T07:22:24.207Z,1000.87
2017-12-16T07:23:45.215Z,1000.89
2017-12-16T07:24:24.218Z,1000.96
2017-12-16T07:25:24.328Z,1000.94
2017-12-16T07:26:24.234Z,1000.99
2017-12-16T07:27:26.307Z,1000.99
2017-12-16T07:28:24.219Z,1001.10
2017-12-16T07:29:24.347Z,1001.06
2017-12-16T07:30:24.226Z,1001.03
2017-12-16T07:31:37.167Z,1001.06
2017-12-16T07:32:24.249Z,1001.04
2017-12-16T07:33:58.172Z,1001.09
2017-12-16T07:34:24.278Z,1001.08
2017-12-16T07:35:24.255Z,1001.17
2017-12-16T07:36:54.102Z,1001.15
2017-12-16T07:37:24.302Z,1001.17
2017-12-16T07:38:24.249Z,1001.22
2017-12-16T07:39:25.343Z,1001.13
2017-12-16T07:40:24.247Z,1001.16
2017-12-16T07:41:25.355Z,1001.21
2017-12-16T07:42:24.256Z,1001.26
2017-12-16T09:02:41.625Z,1002.36
2017-12-16T09:03:43.633Z,1002.40
2017-12-16T09:29:03.768Z,1002.67
2017-12-16T09:30:03.734Z,1002.69
2017-12-16T09:31:57.088Z,1002.70
2017-12-16T09:32:57.046Z,1002.70
2017-12-16T09:33:58.125Z,1002.68
2017-12-16T09:34:57.060Z,1002.72
2017-12-16T09:35:57.106Z,1002.76
2017-12-16T09:36:57.076Z,1002.73
2017-12-16T09:37:58.157Z,1002.77
2017-12-16T09:38:57.061Z,1002.78
2017-12-16T09:40:02.737Z,1002.78
2017-12-16T09:40:57.067Z,1002.81
2017-12-16T09:41:57.150Z,1002.85
2017-12-16T09:42:57.090Z,1002.83
2017-12-16T09:43:59.092Z,1002.88
2017-12-16T09:44:57.142Z,1002.92
2017-12-16T09:45:59.119Z,1002.87
2017-12-16T09:46:57.076Z,1002.93
2017-12-16T09:47:58.213Z,1002.90
2017-12-16T09:48:57.086Z,1002.92
2017-12-16T09:50:02.792Z,1002.96
2017-12-16T09:50:57.085Z,1002.98
2017-12-16T09:51:58.129Z,1002.90
2017-12-16T09:52:57.097Z,1002.94
2017-12-16T09:53:57.121Z,1002.99
2017-12-16T09:54:57.111Z,1002.99
2017-12-16T09:55:58.147Z,1003.02
2017-12-16T09:56:57.149Z,1003.05
2017-12-16T09:57:57.157Z,1003.08
2017-12-16T09:58:57.104Z,1003.04
2017-12-16T09:59:57.159Z,1003.05
2017-12-16T10:00:57.120Z,1003.10
2017-12-16T10:01:57.200Z,1003.12
2017-12-16T10:02:57.113Z,1003.10
2017-12-16T10:03:57.188Z,1003.08
2017-12-16T10:04:57.132Z,1003.16
2017-12-16T10:05:57.132Z,1003.18
2017-12-16T10:06:57.234Z,1003.11
2017-12-16T10:07:57.123Z,1003.12
2017-12-16T10:08:57.147Z,1003.10
2017-12-16T10:09:57.278Z,1003.16
2017-12-16T10:10:57.129Z,1003.12
2017-12-16T10:11:57.134Z,1003.19
2017-12-16T10:12:58.173Z,1003.16
2017-12-16T10:13:57.141Z,1003.21
2017-12-16T10:14:57.187Z,1003.16
2017-12-16T10:15:57.162Z,1003.15
2017-12-16T10:16:57.181Z,1003.16
2017-12-16T10:17:57.158Z,1003.22
2017-12-16T10:18:57.151Z,1003.22
2017-12-16T10:19:57.163Z,1003.17
2017-12-16T10:20:58.221Z,1003.28
2017-12-16T10:21:57.162Z,1003.19
2017-12-16T10:23:02.233Z,1003.21
2017-12-16T10:23:57.166Z,1003.20
2017-12-16T10:24:57.251Z,1003.21
2017-12-16T10:25:57.177Z,1003.22
2017-12-16T10:26:58.262Z,1003.22
2017-12-16T10:27:57.179Z,1003.24
2017-12-16T10:28:57.264Z,1003.22
2017-12-16T10:29:57.157Z,1003.24
2017-12-16T10:30:59.211Z,1003.24
2017-12-16T10:31:57.166Z,1003.25
2017-12-16T10:32:57.303Z,1003.27
2017-12-16T10:33:57.177Z,1003.28
2017-12-16T10:34:58.212Z,1003.31
2017-12-16T10:35:57.192Z,1003.30
2017-12-16T10:36:57.209Z,1003.33
2017-12-16T10:37:57.201Z,1003.28
2017-12-16T10:38:58.232Z,1003.35
2017-12-16T10:39:57.203Z,1003.40
2017-12-16T10:40:58.249Z,1003.40
2017-12-16T10:41:57.199Z,1003.38
2017-12-16T10:42:57.185Z,1003.38
2017-12-16T10:43:57.205Z,1003.43
2017-12-16T10:44:59.302Z,1003.43
2017-12-16T10:45:57.208Z,1003.38
2017-12-16T10:46:57.203Z,1003.34
2017-12-16T10:47:57.245Z,1003.36
2017-12-16T10:49:03.259Z,1003.35
2017-12-16T10:49:57.222Z,1003.36
2017-12-16T10:50:57.299Z,1003.41
2017-12-16T10:51:57.220Z,1003.43
2017-12-16T10:52:58.241Z,1003.38
2017-12-16T10:53:57.233Z,1003.49
2017-12-16T10:54:57.339Z,1003.47
2017-12-16T10:55:57.228Z,1003.51
2017-12-16T10:56:58.258Z,1003.48
2017-12-16T10:57:57.228Z,1003.54
2017-12-16T10:58:59.299Z,1003.55
2017-12-16T10:59:57.240Z,1003.55
2017-12-16T11:00:57.262Z,1003.56
2017-12-16T11:01:57.275Z,1003.57
2017-12-16T11:02:57.280Z,1003.58
2017-12-16T11:03:57.238Z,1003.56
2017-12-16T11:04:57.287Z,1003.53
2017-12-16T11:05:57.297Z,1003.59
2017-12-16T11:06:58.339Z,1003.57
2017-12-16T11:07:57.250Z,1003.57
2017-12-16T11:08:58.383Z,1003.68
2017-12-16T11:09:57.257Z,1003.63
2017-12-16T11:10:57.332Z,1003.61
2017-12-16T11:11:57.268Z,1003.59
2017-12-16T11:13:02.175Z,1003.61
2017-12-16T11:13:57.272Z,1003.62
2017-12-16T11:14:59.301Z,1003.71
2017-12-16T11:15:57.294Z,1003.67
2017-12-16T11:16:57.392Z,1003.74
2017-12-16T11:17:57.293Z,1003.74
2017-12-16T11:18:57.280Z,1003.70
2017-12-16T11:19:57.281Z,1003.76
2017-12-16T11:20:57.308Z,1003.75
2017-12-16T11:21:57.282Z,1003.80
2017-12-16T11:23:03.259Z,1003.77
2017-12-16T11:23:57.277Z,1003.78
2017-12-16T11:25:03.160Z,1003.81
2017-12-16T11:25:57.291Z,1003.78
2017-12-16T11:26:57.432Z,1003.78
2017-12-16T11:27:57.294Z,1003.77
2017-12-16T11:28:57.327Z,1003.74
2017-12-16T11:29:57.294Z,1003.69
2017-12-16T11:30:57.324Z,1003.72
2017-12-16T11:31:57.294Z,1003.71
2017-12-16T11:32:57.337Z,1003.71
2017-12-16T11:33:57.343Z,1003.80
2017-12-16T11:34:57.355Z,1003.74
2017-12-16T11:35:57.331Z,1003.73
2017-12-16T11:36:57.370Z,1003.73
2017-12-16T11:37:57.319Z,1003.73
2017-12-16T11:38:57.389Z,1003.68
2017-12-16T11:39:57.333Z,1003.65
2017-12-16T11:40:57.407Z,1003.68
2017-12-16T11:41:57.348Z,1003.65
2017-12-16T11:42:58.431Z,1003.69
2017-12-16T11:43:57.332Z,1003.63
2017-12-16T11:45:04.182Z,1003.62
2017-12-16T11:45:57.334Z,1003.62
2017-12-16T11:46:59.379Z,1003.64
2017-12-16T11:47:57.370Z,1003.65
2017-12-16T11:48:57.467Z,1003.63
2017-12-16T11:49:57.354Z,1003.70
2017-12-16T11:50:57.356Z,1003.64
2017-12-16T11:51:57.393Z,1003.66
2017-12-16T11:52:57.380Z,1003.69
2017-12-16T11:53:57.382Z,1003.68
2017-12-16T11:54:57.372Z,1003.71
2017-12-16T11:55:57.395Z,1003.71
2017-12-16T11:56:57.361Z,1003.69
2017-12-16T11:57:57.404Z,1003.72
2017-12-16T11:58:57.373Z,1003.77
2017-12-16T11:59:57.450Z,1003.79
2017-12-16T12:00:57.366Z,1003.74
2017-12-16T12:01:57.434Z,1003.74
2017-12-16T12:02:57.388Z,1003.83
2017-12-16T12:03:58.477Z,1003.77
2017-12-16T12:04:57.397Z,1003.75
2017-12-16T12:05:59.428Z,1003.76
2017-12-16T12:06:57.397Z,1003.78
2017-12-16T12:08:02.184Z,1003.80
2017-12-16T12:08:57.405Z,1003.79
2017-12-16T12:10:02.208Z,1003.78
2017-12-16T12:10:57.399Z,1003.79
2017-12-16T12:11:57.513Z,1003.80
2017-12-16T12:12:57.398Z,1003.85
2017-12-16T12:13:57.519Z,1003.85
2017-12-16T12:14:57.418Z,1003.75
2017-12-16T12:15:57.422Z,1003.75
2017-12-16T12:16:57.425Z,1003.81
2017-12-16T12:17:59.495Z,1003.76
2017-12-16T12:18:57.423Z,1003.76
2017-12-16T12:19:57.468Z,1003.76
2017-12-16T12:20:57.471Z,1003.81
2017-12-16T12:21:57.428Z,1003.83
2017-12-16T12:22:58.505Z,1003.79
2017-12-16T12:23:57.428Z,1003.78
2017-12-16T12:25:04.251Z,1003.79
2017-12-16T12:25:57.452Z,1003.79
2017-12-16T12:26:58.538Z,1003.80
2017-12-16T12:27:57.440Z,1003.83
2017-12-16T12:28:57.512Z,1003.83
2017-12-16T12:29:57.477Z,1003.86
2017-12-16T12:30:57.567Z,1003.89
2017-12-16T12:31:57.541Z,1003.92
2017-12-16T12:33:04.238Z,1003.86
2017-12-16T12:33:57.485Z,1003.86
2017-12-16T12:34:59.507Z,1003.88
2017-12-16T12:35:57.474Z,1003.89
2017-12-16T12:36:57.558Z,1003.90
2017-12-16T12:37:57.489Z,1003.91
2017-12-16T12:39:02.180Z,1003.89
2017-12-16T12:39:57.478Z,1003.90
2017-12-16T12:40:58.507Z,1003.94
2017-12-16T12:41:57.492Z,1003.92
2017-12-16T12:42:59.544Z,1003.86
2017-12-16T12:43:57.506Z,1003.95
2017-12-16T12:44:57.504Z,1003.94
2017-12-16T12:45:58.532Z,1003.98
2017-12-16T12:46:57.496Z,1003.99
2017-12-16T12:48:13.195Z,1003.98
2017-12-16T12:48:57.509Z,1003.94
2017-12-16T12:49:59.594Z,1003.92
2017-12-16T12:50:57.510Z,1003.92
2017-12-16T12:52:09.243Z,1003.92
2017-12-16T12:52:57.544Z,1003.95
2017-12-16T12:53:57.532Z,1003.97
2017-12-16T12:54:57.563Z,1003.94
2017-12-16T12:55:57.547Z,1003.90
2017-12-16T12:56:57.540Z,1003.93
2017-12-16T12:57:57.549Z,1003.96
2017-12-16T12:58:57.587Z,1003.96
2017-12-16T12:59:57.576Z,1003.90
2017-12-16T13:00:59.679Z,1003.96
2017-12-16T13:01:57.553Z,1003.98
2017-12-16T13:02:57.619Z,1003.96
2017-12-16T13:03:57.588Z,1004.02
2017-12-16T13:04:57.639Z,1004.01
2017-12-16T13:05:57.581Z,1003.98
2017-12-16T13:06:57.558Z,1004.04
2017-12-16T13:07:57.562Z,1004.02
2017-12-16T13:08:57.663Z,1004.03
2017-12-16T13:09:57.568Z,1004.09
2017-12-16T13:10:58.604Z,1004.10
2017-12-16T13:11:57.568Z,1004.14
2017-12-16T13:12:58.674Z,1004.08
2017-12-16T13:13:57.570Z,1004.12
2017-12-16T13:14:57.603Z,1004.11
2017-12-16T13:15:57.569Z,1004.10
2017-12-16T13:16:59.660Z,1004.11
2017-12-16T13:17:57.575Z,1004.11
2017-12-16T13:19:08.258Z,1004.13
2017-12-16T13:19:57.593Z,1004.13
2017-12-16T13:21:27.216Z,1004.13
2017-12-16T13:21:57.605Z,1004.12
2017-12-16T13:23:02.251Z,1004.14
2017-12-16T13:23:57.611Z,1004.14
2017-12-16T13:24:58.676Z,1004.20
2017-12-16T13:25:57.639Z,1004.15
2017-12-16T13:27:03.201Z,1004.18
2017-12-16T13:27:57.639Z,1004.21
2017-12-16T13:29:14.319Z,1004.21
2017-12-16T13:29:57.656Z,1004.23
2017-12-16T13:31:04.251Z,1004.25
2017-12-16T13:31:57.625Z,1004.25
2017-12-16T13:33:09.176Z,1004.24
2017-12-16T13:33:57.635Z,1004.26
2017-12-16T13:35:02.244Z,1004.26
2017-12-16T13:35:57.628Z,1004.24
2017-12-16T13:36:58.664Z,1004.25
2017-12-16T13:37:57.630Z,1004.26
2017-12-16T13:38:57.803Z,1004.30
2017-12-16T13:39:57.635Z,1004.32
2017-12-16T13:40:57.720Z,1004.29
2017-12-16T13:41:57.645Z,1004.33
2017-12-16T13:43:02.247Z,1004.31
2017-12-16T13:43:57.647Z,1004.32
2017-12-16T13:44:59.754Z,1004.30
2017-12-16T13:45:57.678Z,1004.35
2017-12-16T13:46:58.682Z,1004.27
2017-12-16T13:47:57.707Z,1004.36
2017-12-16T13:48:58.807Z,1004.32
2017-12-16T13:49:57.691Z,1004.32
2017-12-16T13:50:58.701Z,1004.30
2017-12-16T13:51:57.712Z,1004.35
2017-12-16T13:53:03.747Z,1004.34
2017-12-16T13:53:57.680Z,1004.37
2017-12-16T13:54:57.724Z,1004.40
2017-12-16T13:55:57.695Z,1004.45
2017-12-16T13:56:58.752Z,1004.45
2017-12-16T13:57:57.688Z,1004.50
2017-12-16T13:58:58.757Z,1004.45
2017-12-16T13:59:57.699Z,1004.52
2017-12-16T14:00:57.795Z,1004.52
2017-12-16T14:01:57.722Z,1004.51
2017-12-16T14:02:57.770Z,1004.53
2017-12-16T14:03:57.704Z,1004.49
2017-12-16T14:04:59.816Z,1004.55
2017-12-16T14:05:57.704Z,1004.54
2017-12-16T14:06:57.789Z,1004.52
2017-12-16T14:07:57.748Z,1004.60
2017-12-16T14:09:18.804Z,1004.58
2017-12-16T14:09:57.715Z,1004.57
2017-12-16T14:10:57.725Z,1004.59
2017-12-16T14:12:02.738Z,1004.58
2017-12-16T14:12:57.747Z,1004.63
2017-12-16T14:13:58.760Z,1004.68
2017-12-16T14:14:57.760Z,1004.66
2017-12-16T14:16:03.688Z,1004.71
2017-12-16T14:16:57.768Z,1004.74
2017-12-16T14:17:57.780Z,1004.71
2017-12-16T14:18:57.783Z,1004.71
2017-12-16T14:20:04.744Z,1004.77
2017-12-16T14:20:57.776Z,1004.74
2017-12-16T14:22:10.690Z,1004.73
2017-12-16T14:22:57.788Z,1004.77
2017-12-16T14:23:57.854Z,1004.79
2017-12-16T14:24:57.762Z,1004.76
2017-12-16T14:25:58.796Z,1004.82
2017-12-16T14:26:57.771Z,1004.81
2017-12-16T14:27:58.902Z,1004.77
2017-12-16T14:28:57.754Z,1004.82
2017-12-16T14:30:10.736Z,1004.85
2017-12-16T14:30:57.771Z,1004.91
2017-12-16T14:31:57.815Z,1004.87
2017-12-16T14:32:57.779Z,1004.91
2017-12-16T14:33:59.858Z,1004.95
2017-12-16T14:34:57.783Z,1004.97
2017-12-16T14:35:57.826Z,1004.92
2017-12-16T14:36:57.783Z,1004.96
2017-12-16T14:37:57.796Z,1004.98
2017-12-16T14:38:57.870Z,1004.99
2017-12-16T14:39:57.800Z,1005.03
2017-12-16T14:40:57.896Z,1005.05
2017-12-16T14:41:57.791Z,1005.01
2017-12-16T14:42:57.887Z,1005.04
2017-12-16T14:43:57.815Z,1005.08
2017-12-16T14:44:57.801Z,1005.10
2017-12-16T14:45:59.840Z,1005.14
2017-12-16T14:46:57.809Z,1005.12
2017-12-16T14:47:57.919Z,1005.11
2017-12-16T14:48:57.831Z,1005.17
2017-12-16T14:49:57.922Z,1005.17
2017-12-16T14:50:57.836Z,1005.24
2017-12-16T14:51:57.850Z,1005.21
2017-12-16T14:52:57.819Z,1005.25
2017-12-16T14:53:57.852Z,1005.32
2017-12-16T14:54:57.830Z,1005.25
2017-12-16T14:55:57.886Z,1005.28
2017-12-16T14:56:57.829Z,1005.31
2017-12-16T14:57:58.904Z,1005.26
2017-12-16T14:58:57.840Z,1005.29
2017-12-16T14:59:58.915Z,1005.32
2017-12-16T15:00:57.838Z,1005.31
2017-12-16T15:02:03.734Z,1005.38
2017-12-16T15:02:57.859Z,1005.38
2017-12-16T15:03:59.941Z,1005.33
2017-12-16T15:04:57.860Z,1005.40
2017-12-16T15:05:58.921Z,1005.42
2017-12-16T15:06:57.858Z,1005.43
2017-12-16T15:08:08.766Z,1005.47
2017-12-16T15:08:57.870Z,1005.46
2017-12-16T15:09:58.957Z,1005.44
2017-12-16T15:10:57.896Z,1005.45
2017-12-16T15:11:58.978Z,1005.44
2017-12-16T15:12:57.883Z,1005.51
2017-12-16T15:14:02.779Z,1005.47
2017-12-16T15:14:57.875Z,1005.48
2017-12-16T15:15:59.919Z,1005.48
2017-12-16T15:16:57.886Z,1005.52
2017-12-16T15:18:02.698Z,1005.52
2017-12-16T15:18:57.914Z,1005.50
2017-12-16T15:19:57.994Z,1005.56
2017-12-16T15:20:57.884Z,1005.54
2017-12-16T15:21:59.962Z,1005.52
2017-12-16T15:22:57.890Z,1005.50
2017-12-16T15:24:18.927Z,1005.53
2017-12-16T15:24:57.905Z,1005.53
2017-12-16T15:25:57.892Z,1005.57
2017-12-16T15:26:58.971Z,1005.55
2017-12-16T15:27:57.922Z,1005.54
2017-12-16T15:28:57.981Z,1005.63
2017-12-16T15:29:57.926Z,1005.59
2017-12-16T15:31:21.736Z,1005.68
2017-12-16T15:31:57.931Z,1005.66
2017-12-16T15:32:57.925Z,1005.65
2017-12-16T15:33:59.026Z,1005.63
2017-12-16T15:34:57.952Z,1005.66
2017-12-16T15:36:29.810Z,1005.66
2017-12-16T15:36:57.953Z,1005.67
2017-12-16T15:37:57.932Z,1005.61
2017-12-16T15:38:59.985Z,1005.69
2017-12-16T15:39:57.953Z,1005.70
2017-12-16T15:41:13.722Z,1005.73
2017-12-16T15:41:57.956Z,1005.68
2017-12-16T15:43:14.751Z,1005.79
2017-12-16T15:43:57.934Z,1005.75
2017-12-16T15:44:57.963Z,1005.72
2017-12-16T15:45:57.951Z,1005.73
2017-12-16T15:47:04.730Z,1005.71
2017-12-16T15:47:57.951Z,1005.78
2017-12-16T15:48:59.018Z,1005.76
2017-12-16T15:49:57.958Z,1005.82
2017-12-16T15:51:03.750Z,1005.78
2017-12-16T15:51:59.043Z,1005.83
2017-12-16T15:53:10.737Z,1005.85
2017-12-16T15:53:57.971Z,1005.80
2017-12-16T15:54:57.973Z,1005.83
2017-12-16T15:55:59.091Z,1005.83
2017-12-16T15:56:57.978Z,1005.82
2017-12-16T15:58:00.094Z,1005.85
2017-12-16T15:58:58.020Z,1005.86
2017-12-16T15:59:59.061Z,1005.84
2017-12-16T16:00:57.997Z,1005.93
2017-12-16T16:02:02.770Z,1005.89
2017-12-16T16:02:57.996Z,1005.89
2017-12-16T16:04:03.701Z,1005.87
2017-12-16T16:04:58.027Z,1005.91
2017-12-16T16:05:58.079Z,1005.92
2017-12-16T16:06:57.996Z,1005.94
2017-12-16T16:08:02.702Z,1005.97
2017-12-16T16:08:58.018Z,1006.02
2017-12-16T16:09:58.005Z,1006.02
2017-12-16T16:10:58.116Z,1006.00
2017-12-16T16:11:58.007Z,1006.06
2017-12-16T16:13:02.740Z,1006.06
2017-12-16T16:13:58.016Z,1006.09
2017-12-16T16:15:21.690Z,1006.09
2017-12-16T16:15:58.019Z,1006.09
2017-12-16T16:16:59.085Z,1006.06
2017-12-16T16:17:58.020Z,1006.07
2017-12-16T16:19:31.782Z,1006.09
2017-12-16T16:19:58.050Z,1006.14
2017-12-16T16:20:58.105Z,1006.14
2017-12-16T16:21:58.034Z,1006.37
2017-12-16T16:22:50.208Z,1006.32
2017-12-16T16:24:06.905Z,1006.33
2017-12-16T16:24:50.189Z,1006.33
2017-12-16T16:25:50.216Z,1006.34
2017-12-16T16:26:50.187Z,1006.35
2017-12-16T16:27:50.236Z,1006.36
2017-12-16T16:28:50.199Z,1006.40
2017-12-16T16:30:00.898Z,1006.41
2017-12-16T16:30:50.195Z,1006.42
2017-12-16T16:47:55.601Z,1006.70
2017-12-16T16:48:47.796Z,1006.75
2017-12-16T16:49:47.760Z,1006.73
2017-12-16T16:50:47.853Z,1006.76
2017-12-16T16:51:47.763Z,1006.82
2017-12-16T16:52:49.792Z,1006.79
2017-12-16T16:53:47.758Z,1006.79
2017-12-16T16:54:47.766Z,1006.80
2017-12-16T16:55:47.767Z,1006.81
2017-12-16T16:56:47.857Z,1006.86
2017-12-16T16:57:47.758Z,1006.85
2017-12-16T16:58:48.800Z,1006.83
2017-12-16T16:59:47.782Z,1006.90
2017-12-16T17:00:47.778Z,1006.98